Terminal Aerodrome Forecast
Issued by NWS

Current Version | Previous Version | Text Only | Print | Product List | Glossary On
Versions: 1 2 3 4 5 6 7 8 9 10 11 12 13
000
FTUS42 TJSJ 041700 CCA
TAFIST
TAF COR
TIST 041733Z 0418/0518 09016G26KT P6SM SCT030 SCT080
     FM042300 08012KT P6SM FEW025 SCT040
     FM051300 11016G25KT P6SM FEW025
      AMD NOT SKED=

USA.gov is the U.S. government's official web portal to all federal, state and local government web resources and services.